CEQ3 weather

Camrose Airport
Camrose, Alberta, Canada

Public forecast

Using degrees Celsius for public forecast. Weather courtesy of forecast.io.

METAR (pilot weather report)

Closest report is Edmonton International Airport, 31.9 nm (59.1 km) WNW. Retrieved 2019/05/19 18:00 UTC (54 minutes ago):

CYEG 191800Z 16013G25KT 110V180 20SM FEW060 SCT250 14/M01 A3008 RMK CU2CI1 SLP208 DENSITY ALT 2600FT

TAF (pilot weather forecast)

Closest forecast is Edmonton International Airport, 31.9 nm (59.1 km) WNW. Retrieved 2019/05/19 18:39 UTC (15 minutes ago):

TAF CYEG 191738Z 1918/2018 14015G25KT P6SM SCT060 BECMG 2001/2003 14010KT SKC FM201700 14015G25KT P6SM SCT060 RMK NXT FCST BY 192100Z